Time;durP1;ratioP1;P1;durP2;ratioP2;P2;SDS_P1;SDS_P2;PMS_P1;PMS_P2;Temp;Humidity;BMP_temperature;BMP_pressure;BME280_temperature;BME280_humidity;BME280_pressure;Samples;Min_cycle;Max_cycle;Signal;HPM_P1;HPM_P2
2023/03/29 00:01:30;;;;;;;;;;;4.40;99.90;;;;;;5072967;28;19935;-63
2023/03/29 00:04:02;;;;;;;;;;;4.40;99.90;;;;;;5069330;28;19920;-63
2023/03/29 00:06:34;;;;;;;;;;;4.40;99.90;;;;;;5069951;28;19924;-63
2023/03/29 00:09:04;;;;;;;;;;;4.40;99.90;;;;;;5052550;28;19966;-63
2023/03/29 00:11:36;;;;;;;;;;;4.30;99.90;;;;;;5037906;28;20430;-63
2023/03/29 00:14:08;;;;;;;;;;;4.30;99.90;;;;;;5069496;28;19927;-63
2023/03/29 00:16:40;;;;;;;;;;;4.30;99.90;;;;;;5066996;28;19921;-63
2023/03/29 00:19:12;;;;;;;;;;;4.20;99.90;;;;;;5070368;28;20456;-63
2023/03/29 00:21:44;;;;;;;;;;;4.20;99.90;;;;;;5058431;28;19923;-63
2023/03/29 00:24:16;;;;;;;;;;;4.20;99.90;;;;;;5067308;28;20545;-63
2023/03/29 00:26:43;;;;;;;;;;;4.10;99.90;;;;;;5040696;28;20324;-64
2023/03/29 00:29:15;;;;;;;;;;;4.10;99.90;;;;;;5070338;28;19928;-64
2023/03/29 00:31:52;;;;;;;;;;;4.00;99.90;;;;;;5069749;28;19927;-64
2023/03/29 00:34:29;;;;;;;;;;;4.00;99.90;;;;;;5066130;28;20017;-64
2023/03/29 00:37:02;;;;;;;;;;;3.90;99.90;;;;;;5067903;28;20010;-64
2023/03/29 00:39:35;;;;;;;;;;;3.90;99.90;;;;;;5069823;28;19921;-64
2023/03/29 00:42:11;;;;;;;;;;;3.90;99.90;;;;;;5069307;28;19940;-64
2023/03/29 00:45:00;;;;;;;;;;;3.90;99.90;;;;;;5053504;28;20424;-64
2023/03/29 00:47:30;;;;;;;;;;;3.90;99.90;;;;;;5070679;28;19921;-64
2023/03/29 00:50:00;;;;;;;;;;;3.90;99.90;;;;;;5069445;28;19927;-64
2023/03/29 00:52:29;;;;;;;;;;;3.90;99.90;;;;;;5069282;28;19920;-64
2023/03/29 00:54:57;;;;;;;;;;;3.90;99.90;;;;;;5069373;28;19920;-64
2023/03/29 00:57:29;;;;;;;;;;;3.90;99.90;;;;;;5062763;28;19925;-64
2023/03/29 01:00:03;;;;;;;;;;;3.90;99.90;;;;;;5066926;28;19924;-64
2023/03/29 01:02:38;;;;;;;;;;;3.90;99.90;;;;;;5052954;28;20400;-64
2023/03/29 01:05:13;;;;;;;;;;;3.80;99.90;;;;;;5053059;28;20350;-64
2023/03/29 01:07:56;;;;;;;;;;;3.80;99.90;;;;;;5053217;28;20044;-64
2023/03/29 01:10:35;;;;;;;;;;;3.90;99.90;;;;;;5065803;28;19931;-64
2023/03/29 01:13:08;;;;;;;;;;;3.90;99.90;;;;;;5054899;28;20006;-64
2023/03/29 01:15:41;;;;;;;;;;;3.80;99.90;;;;;;5067747;28;19925;-64
2023/03/29 01:18:08;;;;;;;;;;;3.80;99.90;;;;;;5067102;28;20387;-64
2023/03/29 01:21:03;;;;;;;;;;;3.80;99.90;;;;;;5050248;28;19928;-64
2023/03/29 01:23:37;;;;;;;;;;;3.80;99.90;;;;;;5051850;28;19925;-64
2023/03/29 01:26:23;;;;;;;;;;;3.80;99.90;;;;;;5048886;28;20002;-64
2023/03/29 01:29:02;;;;;;;;;;;3.70;99.90;;;;;;5053416;28;19925;-64
2023/03/29 01:31:38;;;;;;;;;;;3.70;99.90;;;;;;5070470;28;19962;-64
2023/03/29 01:34:18;;;;;;;;;;;3.70;99.90;;;;;;5053418;28;19924;-64
2023/03/29 01:36:57;;;;;;;;;;;3.60;99.90;;;;;;5049231;28;19943;-64
2023/03/29 01:39:24;;;;;;;;;;;3.60;99.90;;;;;;5065438;28;19924;-64
2023/03/29 01:42:08;;;;;;;;;;;3.60;99.90;;;;;;5066671;28;19924;-64
2023/03/29 01:44:40;;;;;;;;;;;3.60;99.90;;;;;;5064768;28;20019;-64
2023/03/29 01:47:23;;;;;;;;;;;3.60;99.90;;;;;;5041045;28;19924;-64
2023/03/29 01:49:59;;;;;;;;;;;3.70;99.90;;;;;;5068435;28;19927;-64
2023/03/29 01:52:36;;;;;;;;;;;3.70;99.90;;;;;;5051907;28;19920;-64
2023/03/29 01:55:11;;;;;;;;;;;3.70;99.90;;;;;;5069413;28;19932;-64
2023/03/29 01:57:41;;;;;;;;;;;3.70;99.90;;;;;;5070049;28;19929;-64
2023/03/29 02:00:19;;;;;;;;;;;3.70;99.90;;;;;;5057553;28;20315;-64
2023/03/29 02:02:52;;;;;;;;;;;3.70;99.90;;;;;;5049761;28;19924;-64
2023/03/29 02:05:25;;;;;;;;;;;3.70;99.90;;;;;;5067499;28;19924;-64
2023/03/29 02:07:59;;;;;;;;;;;3.70;99.90;;;;;;5065517;28;20292;-64
2023/03/29 02:10:31;;;;;;;;;;;3.70;99.90;;;;;;5058214;28;20459;-64
2023/03/29 02:13:04;;;;;;;;;;;3.70;99.90;;;;;;5066109;28;20375;-63
2023/03/29 02:15:36;;;;;;;;;;;3.70;99.90;;;;;;5051487;28;19924;-63
2023/03/29 02:18:07;;;;;;;;;;;3.70;99.90;;;;;;5070264;28;19921;-64
2023/03/29 02:20:42;;;;;;;;;;;3.80;99.90;;;;;;5052398;28;20277;-64
2023/03/29 02:23:22;;;;;;;;;;;3.80;99.90;;;;;;5038666;28;19924;-64
2023/03/29 02:25:55;;;;;;;;;;;3.70;99.90;;;;;;5050205;28;19924;-64
2023/03/29 02:28:24;;;;;;;;;;;3.70;99.90;;;;;;5058431;28;19994;-64
2023/03/29 02:31:03;;;;;;;;;;;3.70;99.90;;;;;;5057633;28;19928;-64
2023/03/29 02:33:40;;;;;;;;;;;3.60;99.90;;;;;;5062076;28;20409;-64
2023/03/29 02:36:26;;;;;;;;;;;3.70;99.90;;;;;;5061001;28;19928;-63
2023/03/29 02:38:59;;;;;;;;;;;3.70;99.90;;;;;;5049251;28;19921;-64
2023/03/29 02:41:27;;;;;;;;;;;3.60;99.90;;;;;;5053971;28;20067;-64
2023/03/29 02:43:59;;;;;;;;;;;3.60;99.90;;;;;;5066358;28;20437;-64
2023/03/29 02:46:33;;;;;;;;;;;3.70;99.90;;;;;;5051659;28;19950;-64
2023/03/29 02:49:05;;;;;;;;;;;3.70;99.90;;;;;;5038829;28;19921;-64
2023/03/29 02:51:37;;;;;;;;;;;3.70;99.90;;;;;;5054360;28;20334;-64
2023/03/29 02:54:17;;;;;;;;;;;3.70;99.90;;;;;;5070367;28;19920;-64
2023/03/29 02:56:54;;;;;;;;;;;3.60;99.90;;;;;;5054736;28;20019;-63
2023/03/29 02:59:28;;;;;;;;;;;3.70;99.90;;;;;;5055561;28;20416;-63
2023/03/29 03:02:00;;;;;;;;;;;3.70;99.90;;;;;;5070088;28;20586;-63
2023/03/29 03:04:34;;;;;;;;;;;3.70;99.90;;;;;;5055552;28;19960;-64
2023/03/29 03:07:06;;;;;;;;;;;3.60;99.90;;;;;;5071985;28;19931;-63
2023/03/29 03:09:38;;;;;;;;;;;3.70;99.90;;;;;;5071914;28;19921;-63
2023/03/29 03:12:10;;;;;;;;;;;3.60;99.90;;;;;;5056779;28;20003;-63
2023/03/29 03:14:37;;;;;;;;;;;3.60;99.90;;;;;;5057665;28;19939;-64
2023/03/29 03:17:10;;;;;;;;;;;3.60;99.90;;;;;;5055238;28;19966;-64
2023/03/29 03:19:42;;;;;;;;;;;3.60;99.90;;;;;;5055742;28;19931;-64
2023/03/29 03:22:14;;;;;;;;;;;3.60;99.90;;;;;;5070729;28;19927;-63
2023/03/29 03:24:46;;;;;;;;;;;3.50;99.90;;;;;;5054727;28;19925;-64
2023/03/29 03:27:17;;;;;;;;;;;3.60;99.90;;;;;;5068237;28;20387;-64
2023/03/29 03:29:44;;;;;;;;;;;3.70;99.90;;;;;;5056088;28;19920;-63
2023/03/29 03:32:17;;;;;;;;;;;3.70;99.90;;;;;;5072321;28;20008;-64
2023/03/29 03:35:27;;;;;;;;;;;3.70;99.90;;;;;;5067417;28;19928;-63
2023/03/29 03:37:59;;;;;;;;;;;3.60;99.90;;;;;;5069232;28;20392;-63
2023/03/29 03:40:31;;;;;;;;;;;3.60;99.90;;;;;;5054351;28;19982;-64
2023/03/29 03:43:03;;;;;;;;;;;3.70;99.90;;;;;;5068114;28;19924;-64
2023/03/29 03:45:35;;;;;;;;;;;3.80;99.90;;;;;;5055550;28;19935;-63
2023/03/29 03:48:14;;;;;;;;;;;3.90;99.90;;;;;;5044472;28;20443;-64
2023/03/29 03:50:49;;;;;;;;;;;4.10;99.90;;;;;;5055718;28;20080;-63
2023/03/29 03:53:25;;;;;;;;;;;4.20;99.90;;;;;;5054914;28;20027;-64
2023/03/29 03:56:19;;;;;;;;;;;4.30;99.90;;;;;;5030047;28;20404;-63
2023/03/29 03:59:03;;;;;;;;;;;4.50;99.90;;;;;;5071257;28;19947;-64
2023/03/29 04:01:48;;;;;;;;;;;4.60;99.90;;;;;;5062730;28;19925;-64
2023/03/29 04:04:22;;;;;;;;;;;4.70;99.90;;;;;;5064025;28;20017;-64
2023/03/29 04:07:05;;;;;;;;;;;4.80;99.90;;;;;;5055511;28;19924;-64
2023/03/29 04:09:34;;;;;;;;;;;4.90;99.90;;;;;;5070787;28;19920;-64
2023/03/29 04:12:28;;;;;;;;;;;4.90;99.90;;;;;;5073294;28;19972;-63
2023/03/29 04:15:01;;;;;;;;;;;5.00;99.90;;;;;;5071867;28;19936;-65
2023/03/29 04:17:28;;;;;;;;;;;5.10;99.90;;;;;;5038634;28;20364;-64
2023/03/29 04:19:57;;;;;;;;;;;5.10;99.90;;;;;;5049859;28;19924;-65
2023/03/29 04:22:32;;;;;;;;;;;5.20;99.90;;;;;;5044191;28;19925;-63
2023/03/29 04:25:05;;;;;;;;;;;5.20;99.90;;;;;;5056676;28;20351;-64
2023/03/29 04:27:45;;;;;;;;;;;5.30;99.90;;;;;;5070756;28;19932;-64
2023/03/29 04:30:35;;;;;;;;;;;5.30;99.90;;;;;;5066582;28;19925;-64
2023/03/29 04:33:30;;;;;;;;;;;5.30;99.90;;;;;;5049436;28;19934;-64
2023/03/29 04:36:02;;;;;;;;;;;5.40;99.90;;;;;;5039402;28;19935;-63
2023/03/29 04:38:37;;;;;;;;;;;5.40;99.90;;;;;;5056698;28;19963;-64
2023/03/29 04:41:09;;;;;;;;;;;5.30;99.90;;;;;;5062026;28;19920;-63
2023/03/29 04:44:01;;;;;;;;;;;5.40;99.90;;;;;;5063266;28;19928;-64
2023/03/29 04:46:33;;;;;;;;;;;5.40;99.90;;;;;;5052573;28;19920;-64
2023/03/29 04:49:17;;;;;;;;;;;5.40;99.90;;;;;;5067112;28;19931;-63
2023/03/29 04:51:52;;;;;;;;;;;5.40;99.90;;;;;;5050357;28;19970;-63
2023/03/29 04:54:27;;;;;;;;;;;5.40;99.90;;;;;;5050396;28;20278;-63
2023/03/29 04:57:18;;;;;;;;;;;5.40;99.90;;;;;;5052628;28;19920;-63
2023/03/29 05:00:16;;;;;;;;;;;5.40;99.90;;;;;;5064177;28;19928;-64
2023/03/29 05:03:13;;;;;;;;;;;5.40;99.90;;;;;;5067071;28;19920;-63
2023/03/29 05:05:54;;;;;;;;;;;5.50;99.90;;;;;;5054499;28;19920;-64
2023/03/29 05:08:21;;;;;;;;;;;5.50;99.90;;;;;;5067985;28;19920;-63
2023/03/29 05:11:19;;;;;;;;;;;5.50;99.90;;;;;;5048582;28;20002;-63
2023/03/29 05:13:51;;;;;;;;;;;5.60;99.90;;;;;;5051059;28;19977;-63
2023/03/29 05:16:19;;;;;;;;;;;5.60;99.90;;;;;;5060834;28;19928;-64
2023/03/29 05:18:46;;;;;;;;;;;5.60;99.90;;;;;;5037471;28;19928;-63
2023/03/29 05:21:19;;;;;;;;;;;5.60;99.90;;;;;;5059712;28;19927;-63
2023/03/29 05:23:46;;;;;;;;;;;5.60;99.90;;;;;;5054199;28;19924;-63
2023/03/29 05:26:17;;;;;;;;;;;5.60;99.90;;;;;;5055721;28;19928;-64
2023/03/29 05:28:52;;;;;;;;;;;5.60;99.90;;;;;;5054702;28;20007;-63
2023/03/29 05:31:19;;;;;;;;;;;5.60;99.90;;;;;;5068812;28;19924;-63
2023/03/29 05:33:53;;;;;;;;;;;5.60;99.90;;;;;;5051014;28;19974;-63
2023/03/29 05:36:27;;;;;;;;;;;5.60;99.90;;;;;;5049065;28;19982;-63
2023/03/29 05:38:58;;;;;;;;;;;5.60;99.90;;;;;;5052869;28;20296;-63
2023/03/29 05:41:32;;;;;;;;;;;5.60;99.90;;;;;;5066987;28;20031;-64
2023/03/29 05:44:26;;;;;;;;;;;5.60;99.90;;;;;;5066264;28;19927;-63
2023/03/29 05:47:00;;;;;;;;;;;5.70;99.90;;;;;;5063244;28;19921;-63
2023/03/29 05:49:32;;;;;;;;;;;5.70;99.90;;;;;;5066077;28;19920;-63
2023/03/29 05:52:08;;;;;;;;;;;5.80;99.90;;;;;;5053922;28;20372;-63
2023/03/29 05:54:41;;;;;;;;;;;5.90;99.90;;;;;;5053723;28;19919;-63
2023/03/29 05:57:13;;;;;;;;;;;6.00;99.90;;;;;;5034666;28;19920;-63
2023/03/29 05:59:41;;;;;;;;;;;6.00;99.90;;;;;;5046637;28;19924;-63
2023/03/29 06:02:14;;;;;;;;;;;6.00;99.90;;;;;;5051930;28;20000;-64
2023/03/29 06:04:50;;;;;;;;;;;6.00;99.90;;;;;;5047964;28;19933;-63
2023/03/29 06:07:23;;;;;;;;;;;6.10;99.90;;;;;;5067318;28;19959;-63
2023/03/29 06:10:14;;;;;;;;;;;6.10;99.90;;;;;;5066430;28;19928;-63
2023/03/29 06:12:52;;;;;;;;;;;6.20;99.90;;;;;;5052330;28;19927;-63
2023/03/29 06:15:24;;;;;;;;;;;6.30;99.90;;;;;;5060904;28;19924;-63
2023/03/29 06:18:02;;;;;;;;;;;6.40;99.90;;;;;;5038752;28;19924;-63
2023/03/29 06:20:35;;;;;;;;;;;6.50;99.90;;;;;;5051270;28;19928;-63
2023/03/29 06:23:12;;;;;;;;;;;6.50;99.90;;;;;;5064379;28;19960;-63
2023/03/29 06:25:44;;;;;;;;;;;6.60;99.90;;;;;;5046907;28;20315;-63
2023/03/29 06:28:17;;;;;;;;;;;6.60;99.90;;;;;;5051869;28;19931;-63
2023/03/29 06:30:49;;;;;;;;;;;6.60;99.90;;;;;;5067573;28;19921;-63
2023/03/29 06:33:17;;;;;;;;;;;6.70;99.90;;;;;;5049449;28;19921;-63
2023/03/29 06:36:00;;;;;;;;;;;6.70;99.90;;;;;;5059780;28;19920;-63
2023/03/29 06:38:32;;;;;;;;;;;6.70;99.90;;;;;;5048850;28;20380;-63
2023/03/29 06:41:13;;;;;;;;;;;6.80;99.90;;;;;;5052077;28;20343;-63
2023/03/29 06:44:11;;;;;;;;;;;6.80;99.90;;;;;;5048866;28;19927;-63
2023/03/29 06:46:54;;;;;;;;;;;6.90;99.90;;;;;;5052388;28;19927;-63
2023/03/29 06:49:26;;;;;;;;;;;6.90;99.90;;;;;;5065938;28;19921;-63
2023/03/29 06:52:04;;;;;;;;;;;6.90;99.90;;;;;;5051019;28;19920;-63
2023/03/29 06:54:37;;;;;;;;;;;7.00;99.90;;;;;;5048810;28;19921;-63
2023/03/29 06:57:11;;;;;;;;;;;7.00;99.90;;;;;;5052195;28;19920;-63
2023/03/29 06:59:43;;;;;;;;;;;7.00;99.90;;;;;;5069101;28;19974;-63
2023/03/29 07:02:21;;;;;;;;;;;7.00;99.90;;;;;;5049355;28;19920;-63
2023/03/29 07:04:55;;;;;;;;;;;7.10;99.90;;;;;;5058541;28;19920;-63
2023/03/29 07:07:52;;;;;;;;;;;7.20;99.90;;;;;;5064887;28;20308;-63
2023/03/29 07:10:31;;;;;;;;;;;7.30;99.90;;;;;;5051461;28;19946;-63
2023/03/29 07:13:29;;;;;;;;;;;7.40;99.90;;;;;;5054062;28;19921;-63
2023/03/29 07:16:05;;;;;;;;;;;7.50;99.90;;;;;;5067175;28;20308;-63
2023/03/29 07:19:15;;;;;;;;;;;7.50;99.90;;;;;;5057273;28;19920;-63
2023/03/29 07:21:53;;;;;;;;;;;7.50;99.90;;;;;;5059626;28;19920;-63
2023/03/29 07:24:24;;;;;;;;;;;7.50;99.90;;;;;;5049378;28;19926;-63
2023/03/29 07:26:57;;;;;;;;;;;7.50;99.90;;;;;;5038919;28;19920;-63
2023/03/29 07:29:28;;;;;;;;;;;7.50;99.90;;;;;;5051416;28;19924;-63
2023/03/29 07:32:01;;;;;;;;;;;7.60;99.90;;;;;;5044457;28;20058;-63
2023/03/29 07:34:54;;;;;;;;;;;7.60;99.90;;;;;;5062118;28;20011;-63
2023/03/29 07:37:36;;;;;;;;;;;7.60;99.90;;;;;;5053883;28;19960;-64
2023/03/29 07:40:10;;;;;;;;;;;7.60;99.90;;;;;;5068463;28;19951;-63
2023/03/29 07:43:09;;;;;;;;;;;7.60;99.90;;;;;;5056626;28;19924;-63
2023/03/29 07:45:43;;;;;;;;;;;7.70;99.90;;;;;;5053830;28;20548;-63
2023/03/29 07:48:11;;;;;;;;;;;7.70;99.90;;;;;;5052911;28;19921;-62
2023/03/29 07:50:59;;;;;;;;;;;7.80;99.90;;;;;;5062565;28;19982;-63
2023/03/29 07:53:40;;;;;;;;;;;7.90;99.90;;;;;;5048132;28;19925;-63
2023/03/29 07:56:22;;;;;;;;;;;8.00;99.90;;;;;;5050522;28;20578;-63
2023/03/29 07:59:20;;;;;;;;;;;8.10;99.90;;;;;;5063220;28;19920;-63
2023/03/29 08:02:06;;;;;;;;;;;8.30;99.90;;;;;;5050260;28;20124;-64
2023/03/29 08:04:44;;;;;;;;;;;8.50;99.90;;;;;;5055605;28;19929;-63
2023/03/29 08:07:20;;;;;;;;;;;8.70;99.90;;;;;;5070393;28;19924;-63
2023/03/29 08:09:52;;;;;;;;;;;8.80;99.90;;;;;;5070994;28;20339;-63
2023/03/29 08:12:56;;;;;;;;;;;8.90;99.90;;;;;;5054409;28;19920;-64
2023/03/29 08:15:40;;;;;;;;;;;9.00;99.90;;;;;;5065569;28;19970;-63
2023/03/29 08:18:22;;;;;;;;;;;9.00;99.90;;;;;;5061853;28;19957;-63
2023/03/29 08:20:54;;;;;;;;;;;9.10;99.90;;;;;;5038587;28;19921;-64
2023/03/29 08:23:26;;;;;;;;;;;9.10;99.90;;;;;;5064186;28;20328;-64
2023/03/29 08:25:58;;;;;;;;;;;9.10;99.90;;;;;;5069836;28;19925;-64
2023/03/29 08:28:32;;;;;;;;;;;9.20;99.90;;;;;;5052789;28;20277;-64
2023/03/29 08:31:06;;;;;;;;;;;9.20;99.90;;;;;;5050857;28;19924;-64
2023/03/29 08:33:42;;;;;;;;;;;9.10;99.90;;;;;;5052277;28;19925;-63
2023/03/29 08:36:34;;;;;;;;;;;9.20;99.90;;;;;;5050676;28;19920;-63
2023/03/29 08:39:14;;;;;;;;;;;9.20;99.90;;;;;;5040030;28;19920;-64
2023/03/29 08:42:00;;;;;;;;;;;9.20;99.90;;;;;;5050858;28;20021;-63
2023/03/29 08:44:47;;;;;;;;;;;9.30;99.90;;;;;;5052593;28;19982;-63
2023/03/29 08:47:19;;;;;;;;;;;9.30;99.90;;;;;;5052956;28;20612;-63
2023/03/29 08:49:49;;;;;;;;;;;9.40;99.90;;;;;;5070456;28;20015;-63
2023/03/29 08:52:20;;;;;;;;;;;9.40;99.90;;;;;;5054601;28;20376;-63
2023/03/29 08:54:54;;;;;;;;;;;9.40;99.90;;;;;;5051921;28;19920;-65
2023/03/29 08:57:27;;;;;;;;;;;9.40;99.90;;;;;;5067505;28;19920;-64
2023/03/29 09:00:12;;;;;;;;;;;9.50;99.90;;;;;;5065804;28;19920;-64
2023/03/29 09:02:44;;;;;;;;;;;9.50;99.90;;;;;;5050571;28;19935;-63
2023/03/29 09:05:27;;;;;;;;;;;9.50;99.90;;;;;;5049971;28;19920;-64
2023/03/29 09:08:11;;;;;;;;;;;9.60;99.90;;;;;;5050306;28;19924;-63
2023/03/29 09:10:55;;;;;;;;;;;9.70;99.90;;;;;;5051716;28;19947;-62
2023/03/29 09:13:41;;;;;;;;;;;9.70;99.90;;;;;;5032818;28;20022;-63
2023/03/29 09:16:22;;;;;;;;;;;9.80;99.90;;;;;;5055973;28;19924;-64
2023/03/29 09:18:56;;;;;;;;;;;10.00;99.90;;;;;;5047192;28;20409;-64
2023/03/29 09:21:46;;;;;;;;;;;10.10;99.90;;;;;;5063312;28;19924;-64
2023/03/29 09:24:18;;;;;;;;;;;10.10;99.90;;;;;;5046374;28;19957;-63
2023/03/29 09:27:08;;;;;;;;;;;10.10;99.90;;;;;;5044665;28;20320;-63
2023/03/29 09:30:04;;;;;;;;;;;10.30;99.90;;;;;;5062044;28;19935;-64
2023/03/29 09:32:57;;;;;;;;;;;10.30;99.90;;;;;;5053512;28;19928;-63
2023/03/29 09:35:48;;;;;;;;;;;10.40;99.90;;;;;;5053626;28;19930;-63
2023/03/29 09:38:21;;;;;;;;;;;10.40;99.90;;;;;;5051846;28;19927;-63
2023/03/29 09:41:05;;;;;;;;;;;10.40;99.90;;;;;;5061980;28;19927;-63
2023/03/29 09:43:39;;;;;;;;;;;10.40;99.90;;;;;;5039084;28;19921;-64
2023/03/29 09:46:20;;;;;;;;;;;10.50;99.90;;;;;;5052867;28;19920;-63
2023/03/29 09:48:53;;;;;;;;;;;10.60;99.90;;;;;;5065079;28;19927;-64
2023/03/29 09:51:26;;;;;;;;;;;10.60;99.90;;;;;;5067217;28;19921;-64
2023/03/29 09:53:59;;;;;;;;;;;10.60;99.90;;;;;;5051276;28;19951;-64
2023/03/29 09:56:44;;;;;;;;;;;10.70;99.90;;;;;;5061754;28;19928;-63
2023/03/29 09:59:18;;;;;;;;;;;10.80;99.90;;;;;;5053116;28;19924;-64
2023/03/29 10:01:50;;;;;;;;;;;10.80;99.90;;;;;;5048127;28;20706;-63
2023/03/29 10:04:24;;;;;;;;;;;10.90;99.90;;;;;;5068008;28;19931;-64
2023/03/29 10:06:59;;;;;;;;;;;10.90;99.90;;;;;;5064124;28;19932;-64
2023/03/29 10:09:31;;;;;;;;;;;10.90;99.90;;;;;;5046326;28;20012;-64
2023/03/29 10:12:14;;;;;;;;;;;11.00;99.90;;;;;;5067680;28;19920;-63
2023/03/29 10:14:52;;;;;;;;;;;11.00;99.90;;;;;;5066518;28;19929;-63
2023/03/29 10:17:25;;;;;;;;;;;11.00;99.90;;;;;;5056589;28;19920;-63
2023/03/29 10:19:58;;;;;;;;;;;11.10;99.90;;;;;;5066244;28;19920;-64
2023/03/29 10:22:36;;;;;;;;;;;11.20;99.90;;;;;;5051325;28;20381;-63
2023/03/29 10:25:12;;;;;;;;;;;11.20;99.90;;;;;;5070266;28;19926;-63
2023/03/29 10:27:40;;;;;;;;;;;11.30;99.90;;;;;;5053101;28;19924;-63
2023/03/29 10:30:09;;;;;;;;;;;11.30;99.90;;;;;;5068251;28;19924;-63
2023/03/29 10:32:41;;;;;;;;;;;11.30;99.90;;;;;;5065450;28;19925;-64
2023/03/29 10:35:16;;;;;;;;;;;11.40;99.90;;;;;;5063584;28;20381;-64
2023/03/29 10:37:48;;;;;;;;;;;11.50;99.90;;;;;;5049351;28;19921;-64
2023/03/29 10:40:29;;;;;;;;;;;11.50;99.90;;;;;;5053018;28;19934;-64
2023/03/29 10:43:12;;;;;;;;;;;11.50;99.90;;;;;;5067524;28;19924;-64
2023/03/29 10:45:49;;;;;;;;;;;11.40;99.90;;;;;;5069630;28;19920;-63
2023/03/29 10:48:16;;;;;;;;;;;11.40;99.90;;;;;;5061316;28;20404;-64
2023/03/29 10:50:48;;;;;;;;;;;11.40;99.90;;;;;;5069383;28;19932;-64
2023/03/29 10:53:22;;;;;;;;;;;11.50;99.90;;;;;;5058912;28;19990;-64
2023/03/29 10:56:00;;;;;;;;;;;11.50;99.90;;;;;;5064867;28;20323;-63
2023/03/29 10:58:41;;;;;;;;;;;11.50;99.90;;;;;;5051376;28;19921;-64
2023/03/29 11:01:33;;;;;;;;;;;11.60;99.90;;;;;;5063032;28;19921;-63
2023/03/29 11:04:10;;;;;;;;;;;11.50;99.90;;;;;;5047386;28;19928;-63
2023/03/29 11:06:43;;;;;;;;;;;11.60;99.90;;;;;;5069052;28;20389;-64
2023/03/29 11:09:36;;;;;;;;;;;11.60;99.90;;;;;;5065960;28;20320;-64
2023/03/29 11:12:11;;;;;;;;;;;11.60;99.90;;;;;;5049329;28;19970;-62
2023/03/29 11:14:51;;;;;;;;;;;11.70;99.90;;;;;;5063958;28;19925;-64
2023/03/29 11:17:34;;;;;;;;;;;11.60;99.90;;;;;;5066620;28;19927;-63
2023/03/29 11:20:04;;;;;;;;;;;11.60;99.90;;;;;;5069212;28;20397;-64
2023/03/29 11:22:42;;;;;;;;;;;11.70;99.90;;;;;;5068111;28;20312;-63
2023/03/29 11:25:19;;;;;;;;;;;11.70;99.90;;;;;;5053439;28;20388;-64
2023/03/29 11:27:54;;;;;;;;;;;11.80;99.90;;;;;;5069826;28;20315;-64
2023/03/29 11:30:32;;;;;;;;;;;11.90;99.90;;;;;;5052802;28;19931;-64
2023/03/29 11:33:00;;;;;;;;;;;11.90;99.90;;;;;;5068201;28;20049;-64
2023/03/29 11:35:46;;;;;;;;;;;11.90;99.90;;;;;;5068344;28;19928;-64
2023/03/29 11:38:17;;;;;;;;;;;12.00;99.90;;;;;;5053986;28;19921;-64
2023/03/29 11:40:52;;;;;;;;;;;12.10;99.90;;;;;;5069749;28;19927;-63
2023/03/29 11:43:22;;;;;;;;;;;12.20;99.90;;;;;;5063204;28;19928;-63
2023/03/29 11:45:55;;;;;;;;;;;12.20;99.90;;;;;;5051950;28;19966;-64
2023/03/29 11:48:30;;;;;;;;;;;12.30;99.90;;;;;;5052429;28;19931;-63
2023/03/29 11:51:13;;;;;;;;;;;12.30;99.90;;;;;;5067953;28;20012;-64
2023/03/29 11:53:40;;;;;;;;;;;12.40;99.90;;;;;;5071470;28;19931;-64
2023/03/29 11:56:22;;;;;;;;;;;12.40;99.90;;;;;;5068952;28;20045;-63
2023/03/29 11:58:52;;;;;;;;;;;12.50;99.90;;;;;;5065690;28;19986;-63
2023/03/29 12:01:30;;;;;;;;;;;12.70;99.90;;;;;;5068517;28;19920;-63
2023/03/29 12:04:26;;;;;;;;;;;12.90;99.90;;;;;;5048460;28;20017;-63
2023/03/29 12:07:05;;;;;;;;;;;13.00;99.90;;;;;;5059391;28;20400;-64
2023/03/29 12:09:45;;;;;;;;;;;13.20;99.90;;;;;;5063698;28;20324;-63
2023/03/29 12:12:34;;;;;;;;;;;13.30;99.90;;;;;;5068105;28;19926;-64
2023/03/29 12:15:07;;;;;;;;;;;13.40;99.90;;;;;;5066491;28;19924;-64
2023/03/29 12:17:45;;;;;;;;;;;13.60;99.90;;;;;;5053223;28;20331;-64
2023/03/29 12:20:16;;;;;;;;;;;13.90;99.90;;;;;;5048752;28;19921;-64
2023/03/29 12:22:49;;;;;;;;;;;14.00;99.90;;;;;;5050212;28;19935;-63
2023/03/29 12:25:36;;;;;;;;;;;14.10;99.90;;;;;;5070102;28;19928;-63
2023/03/29 12:28:27;;;;;;;;;;;14.20;99.90;;;;;;5062961;28;19924;-64
2023/03/29 12:31:18;;;;;;;;;;;14.30;99.90;;;;;;5048331;28;19921;-64
2023/03/29 12:34:09;;;;;;;;;;;14.20;99.90;;;;;;5049793;28;19920;-63
2023/03/29 12:37:17;;;;;;;;;;;14.20;99.90;;;;;;5065397;28;19920;-63
2023/03/29 12:40:17;;;;;;;;;;;14.00;99.90;;;;;;5021272;28;19920;-64
2023/03/29 12:43:14;;;;;;;;;;;13.90;99.90;;;;;;5070334;28;20079;-64
2023/03/29 12:46:08;;;;;;;;;;;13.90;99.90;;;;;;5066977;28;20015;-64
2023/03/29 12:48:40;;;;;;;;;;;14.00;99.90;;;;;;5066845;28;19924;-64
2023/03/29 12:51:19;;;;;;;;;;;13.90;99.90;;;;;;5065251;28;19970;-63
2023/03/29 12:53:52;;;;;;;;;;;13.90;99.90;;;;;;5065147;28;19932;-64
2023/03/29 12:56:35;;;;;;;;;;;13.90;99.90;;;;;;5067989;28;20286;-64
2023/03/29 12:59:09;;;;;;;;;;;13.90;99.90;;;;;;5062508;28;20657;-63
2023/03/29 13:01:50;;;;;;;;;;;13.90;99.90;;;;;;5051866;28;19924;-63
2023/03/29 13:04:19;;;;;;;;;;;13.90;99.90;;;;;;5062375;28;19960;-63
2023/03/29 13:06:46;;;;;;;;;;;13.90;99.90;;;;;;5051324;28;20455;-63
2023/03/29 13:09:50;;;;;;;;;;;13.90;99.90;;;;;;5068237;28;20416;-63
2023/03/29 13:12:22;;;;;;;;;;;13.90;99.90;;;;;;5038715;28;20481;-64
2023/03/29 13:14:51;;;;;;;;;;;13.80;99.90;;;;;;5068717;28;20431;-64
2023/03/29 13:17:47;;;;;;;;;;;13.80;99.90;;;;;;5069866;28;19947;-63
2023/03/29 13:20:36;;;;;;;;;;;13.70;99.90;;;;;;5067645;28;19972;-63
2023/03/29 13:23:14;;;;;;;;;;;13.60;99.90;;;;;;5050624;28;19943;-64
2023/03/29 13:25:45;;;;;;;;;;;13.50;99.90;;;;;;5069157;28;20301;-64
2023/03/29 13:28:22;;;;;;;;;;;13.50;99.90;;;;;;5065518;28;19936;-64
2023/03/29 13:30:51;;;;;;;;;;;13.50;99.90;;;;;;5049009;28;20404;-65
2023/03/29 13:33:23;;;;;;;;;;;13.50;99.90;;;;;;5062070;28;19935;-63
2023/03/29 13:36:01;;;;;;;;;;;13.50;99.90;;;;;;5064586;28;19928;-63
2023/03/29 13:38:43;;;;;;;;;;;13.60;99.90;;;;;;5049939;28;20387;-64
2023/03/29 13:41:33;;;;;;;;;;;13.80;99.90;;;;;;5066146;28;19924;-63
2023/03/29 13:44:20;;;;;;;;;;;14.00;99.90;;;;;;5066189;28;19921;-63
2023/03/29 13:47:03;;;;;;;;;;;14.20;99.90;;;;;;5068801;28;19986;-63
2023/03/29 13:49:35;;;;;;;;;;;14.20;99.90;;;;;;5044577;28;19925;-64
2023/03/29 13:52:25;;;;;;;;;;;14.20;99.90;;;;;;5066925;28;19925;-64
2023/03/29 13:55:18;;;;;;;;;;;14.20;99.90;;;;;;5070809;28;19966;-63
2023/03/29 13:58:08;;;;;;;;;;;13.90;99.90;;;;;;5057905;28;19966;-63
2023/03/29 14:00:42;;;;;;;;;;;13.80;99.90;;;;;;5049172;28;19931;-63
2023/03/29 14:03:14;;;;;;;;;;;13.60;99.90;;;;;;5060584;28;19927;-63
2023/03/29 14:05:47;;;;;;;;;;;13.60;99.90;;;;;;5062223;28;20736;-63
2023/03/29 14:08:27;;;;;;;;;;;13.50;99.90;;;;;;5065066;28;20307;-64
2023/03/29 14:11:00;;;;;;;;;;;13.40;99.90;;;;;;5062751;28;19927;-63
2023/03/29 14:13:32;;;;;;;;;;;13.30;99.90;;;;;;5051955;28;19924;-63
2023/03/29 14:16:09;;;;;;;;;;;13.30;99.90;;;;;;5065608;28;20311;-64
2023/03/29 14:18:43;;;;;;;;;;;13.10;99.90;;;;;;5064073;28;20343;-64
2023/03/29 14:21:15;;;;;;;;;;;12.90;99.90;;;;;;5061460;28;19936;-64
2023/03/29 14:23:44;;;;;;;;;;;12.80;99.90;;;;;;5053501;28;20038;-64
2023/03/29 14:26:17;;;;;;;;;;;12.40;99.90;;;;;;5063578;28;19925;-64
2023/03/29 14:28:50;;;;;;;;;;;12.20;99.90;;;;;;5052409;28;20312;-65
2023/03/29 14:31:24;;;;;;;;;;;12.10;99.90;;;;;;5065921;28;19928;-64
2023/03/29 14:33:57;;;;;;;;;;;11.90;99.90;;;;;;5064358;28;19979;-64
2023/03/29 14:36:30;;;;;;;;;;;11.90;99.90;;;;;;5063648;28;19974;-64
2023/03/29 14:39:04;;;;;;;;;;;11.80;99.90;;;;;;5067013;28;20396;-64
2023/03/29 14:41:36;;;;;;;;;;;11.60;99.90;;;;;;5068421;28;19924;-64
2023/03/29 14:44:08;;;;;;;;;;;11.40;99.90;;;;;;5066863;28;19924;-64
2023/03/29 14:46:42;;;;;;;;;;;11.50;99.90;;;;;;5065831;28;20054;-64
2023/03/29 14:49:18;;;;;;;;;;;11.40;99.90;;;;;;5052705;28;19925;-65
2023/03/29 14:51:51;;;;;;;;;;;11.40;99.90;;;;;;5052573;28;19921;-65
2023/03/29 14:54:27;;;;;;;;;;;11.50;99.90;;;;;;5066004;28;19929;-64
2023/03/29 14:56:54;;;;;;;;;;;11.50;99.90;;;;;;5049787;28;19997;-65
2023/03/29 14:59:36;;;;;;;;;;;11.60;99.90;;;;;;5047202;28;20392;-64
2023/03/29 15:02:21;;;;;;;;;;;11.70;99.90;;;;;;5073781;28;19974;-65
2023/03/29 15:04:58;;;;;;;;;;;11.80;99.90;;;;;;5072212;28;19981;-64
2023/03/29 15:07:35;;;;;;;;;;;11.80;99.90;;;;;;5071508;28;20319;-65
2023/03/29 15:10:04;;;;;;;;;;;11.90;99.90;;;;;;5070022;28;20015;-64
2023/03/29 15:12:36;;;;;;;;;;;12.00;99.90;;;;;;5070625;28;19928;-64
2023/03/29 15:15:10;;;;;;;;;;;12.00;99.90;;;;;;5070349;28;19932;-64
2023/03/29 15:17:45;;;;;;;;;;;12.00;99.90;;;;;;5054040;28;19928;-64
2023/03/29 15:20:22;;;;;;;;;;;12.00;99.90;;;;;;5069118;28;19920;-64
2023/03/29 15:23:20;;;;;;;;;;;11.90;99.90;;;;;;5071317;28;19924;-64